Time,TemperatureF,DewpointF,PressureIn,WindDirection,WindDirectionDegrees,WindSpeedMPH,WindSpeedGustMPH,Humidity,HourlyPrecipIn,Conditions,Clouds,dailyrainin,SoftwareType,DateUTC
2017-10-21 00:02:00,54.6,52.6,30.30,ENE,61,0.0,0.0,93,0.00,RA,,0.00,WeatherDisplay:10.37,2017-10-21 04:02:00,
2017-10-21 00:07:00,54.5,52.5,30.30,ENE,61,0.0,0.0,93,0.00,RA,,0.00,WeatherDisplay:10.37,2017-10-21 04:07:00,
2017-10-21 00:12:00,54.4,52.7,30.30,ENE,61,0.0,0.0,94,0.00,,,0.00,WeatherDisplay:10.37,2017-10-21 04:12:00,
2017-10-21 00:17:00,54.4,52.7,30.30,ENE,61,0.0,0.0,94,0.00,,,0.00,WeatherDisplay:10.37,2017-10-21 04:17:00,
2017-10-21 00:22:00,54.4,52.7,30.30,ENE,61,0.0,0.0,94,0.00,,,0.00,WeatherDisplay:10.37,2017-10-21 04:22:00,
2017-10-21 00:27:00,54.4,53.0,30.30,ENE,61,0.0,0.0,95,0.00,,,0.00,WeatherDisplay:10.37,2017-10-21 04:27:00,
2017-10-21 00:32:00,54.4,53.0,30.31,ENE,61,0.0,0.0,95,0.00,,,0.00,WeatherDisplay:10.37,2017-10-21 04:32:00,
2017-10-21 00:37:00,54.3,52.9,30.31,ENE,61,0.0,0.0,95,0.00,,,0.00,WeatherDisplay:10.37,2017-10-21 04:37:00,
2017-10-21 00:42:00,54.1,52.4,30.31,ENE,61,0.0,0.0,94,0.00,,,0.00,WeatherDisplay:10.37,2017-10-21 04:42:00,
2017-10-21 00:47:00,54.1,52.7,30.31,ENE,61,0.0,0.0,95,0.00,,,0.00,WeatherDisplay:10.37,2017-10-21 04:47:00,
2017-10-21 00:52:00,54.1,52.7,30.31,ENE,61,0.0,0.0,95,0.00,,,0.00,WeatherDisplay:10.37,2017-10-21 04:52:00,
2017-10-21 00:57:00,54.1,52.7,30.31,ENE,61,0.0,0.0,95,0.00,,,0.00,WeatherDisplay:10.37,2017-10-21 04:57:00,
2017-10-21 01:02:00,54.1,52.7,30.31,ENE,61,0.0,0.0,95,0.00,,,0.00,WeatherDisplay:10.37,2017-10-21 05:02:00,
2017-10-21 01:07:00,54.0,52.6,30.31,ENE,61,0.0,0.0,95,0.00,,,0.00,WeatherDisplay:10.37,2017-10-21 05:07:00,
2017-10-21 01:12:00,53.9,52.5,30.31,ENE,61,0.0,0.0,95,0.00,CLR,,0.00,WeatherDisplay:10.37,2017-10-21 05:12:00,
2017-10-21 01:17:00,53.9,52.5,30.31,ENE,61,0.0,0.0,95,0.00,CLR,,0.00,WeatherDisplay:10.37,2017-10-21 05:17:00,
2017-10-21 01:22:00,53.9,52.5,30.31,ENE,61,0.0,0.0,95,0.00,CLR,,0.00,WeatherDisplay:10.37,2017-10-21 05:22:00,
2017-10-21 01:27:00,53.8,52.4,30.31,ENE,61,0.0,0.0,95,0.00,CLR,,0.00,WeatherDisplay:10.37,2017-10-21 05:27:00,
2017-10-21 01:32:00,53.7,52.3,30.31,ENE,61,0.0,0.0,95,0.00,CLR,,0.00,WeatherDisplay:10.37,2017-10-21 05:32:00,
2017-10-21 01:37:00,53.5,52.1,30.31,ENE,61,0.0,0.0,95,0.00,CLR,,0.00,WeatherDisplay:10.37,2017-10-21 05:37:00,
2017-10-21 01:42:00,53.3,51.9,30.31,ENE,61,0.0,0.0,95,0.00,CLR,,0.00,WeatherDisplay:10.37,2017-10-21 05:42:00,
2017-10-21 01:47:00,53.3,51.9,30.31,ENE,61,0.0,0.0,95,0.00,CLR,,0.00,WeatherDisplay:10.37,2017-10-21 05:47:00,
2017-10-21 01:52:00,53.3,51.9,30.31,ENE,61,0.0,0.0,95,0.00,CLR,,0.00,WeatherDisplay:10.37,2017-10-21 05:52:00,
2017-10-21 01:57:00,53.3,51.9,30.31,ENE,61,0.0,0.0,95,0.00,CLR,,0.00,WeatherDisplay:10.37,2017-10-21 05:57:00,
2017-10-21 02:02:00,53.2,51.8,30.31,ENE,61,0.0,0.0,95,0.00,CLR,,0.00,WeatherDisplay:10.37,2017-10-21 06:02:00,
2017-10-21 02:07:00,53.2,51.8,30.31,ENE,61,0.0,0.0,95,0.00,CLR,,0.00,WeatherDisplay:10.37,2017-10-21 06:07:00,
2017-10-21 02:12:00,53.2,52.1,30.31,ENE,61,0.0,0.0,96,0.00,CLR,,0.00,WeatherDisplay:10.37,2017-10-21 06:12:00,
2017-10-21 02:17:00,53.2,52.1,30.31,ENE,61,0.0,0.0,96,0.00,CLR,,0.00,WeatherDisplay:10.37,2017-10-21 06:17:00,
2017-10-21 02:22:00,53.3,52.2,30.31,ENE,61,0.0,0.0,96,0.00,CLR,,0.00,WeatherDisplay:10.37,2017-10-21 06:22:00,
2017-10-21 02:27:00,53.3,52.2,30.30,ENE,61,0.0,0.0,96,0.00,CLR,,0.00,WeatherDisplay:10.37,2017-10-21 06:27:00,
2017-10-21 02:32:00,53.1,52.0,30.31,ENE,61,0.0,0.0,96,0.00,CLR,,0.00,WeatherDisplay:10.37,2017-10-21 06:32:00,
2017-10-21 02:37:00,53.4,52.6,30.31,ENE,61,0.0,0.0,97,0.00,CLR,,0.00,WeatherDisplay:10.37,2017-10-21 06:37:00,
2017-10-21 02:42:00,53.7,52.9,30.31,ENE,61,0.0,0.0,97,0.00,CLR,,0.00,WeatherDisplay:10.37,2017-10-21 06:42:00,
2017-10-21 02:47:00,53.6,52.5,30.30,ENE,61,0.0,0.0,96,0.00,CLR,,0.00,WeatherDisplay:10.37,2017-10-21 06:47:00,
2017-10-21 02:52:00,53.4,52.3,30.30,ENE,61,0.0,0.0,96,0.00,CLR,,0.00,WeatherDisplay:10.37,2017-10-21 06:52:00,
2017-10-21 02:57:00,53.2,52.1,30.30,ENE,61,0.0,0.0,96,0.00,CLR,,0.00,WeatherDisplay:10.37,2017-10-21 06:57:00,
2017-10-21 03:02:00,53.1,52.0,30.30,ENE,61,0.0,0.0,96,0.00,CLR,,0.00,WeatherDisplay:10.37,2017-10-21 07:02:00,
2017-10-21 03:07:00,53.0,51.9,30.30,ENE,61,0.0,0.0,96,0.00,CLR,,0.00,WeatherDisplay:10.37,2017-10-21 07:07:00,
2017-10-21 03:12:00,52.9,51.8,30.30,ENE,61,0.0,0.0,96,0.00,CLR,,0.00,WeatherDisplay:10.37,2017-10-21 07:12:00,
2017-10-21 03:17:00,52.7,51.6,30.30,ENE,61,0.0,0.0,96,0.00,CLR,,0.00,WeatherDisplay:10.37,2017-10-21 07:17:00,
2017-10-21 03:23:00,52.6,51.5,30.30,ENE,61,0.0,0.0,96,0.00,CLR,,0.00,WeatherDisplay:10.37,2017-10-21 07:23:00,
2017-10-21 03:28:00,52.5,51.4,30.30,ENE,61,0.0,0.0,96,0.00,CLR,,0.00,WeatherDisplay:10.37,2017-10-21 07:28:00,
2017-10-21 03:33:00,52.4,51.3,30.30,ENE,61,0.0,0.0,96,0.00,CLR,,0.00,WeatherDisplay:10.37,2017-10-21 07:33:00,
2017-10-21 03:43:00,52.3,51.2,30.30,ENE,61,0.0,0.0,96,0.00,CLR,,0.00,WeatherDisplay:10.37,2017-10-21 07:43:00,
2017-10-21 03:48:00,52.1,51.0,30.30,ENE,61,0.0,0.0,96,0.00,CLR,,0.00,WeatherDisplay:10.37,2017-10-21 07:48:00,
2017-10-21 03:53:00,52.0,50.9,30.30,ENE,61,0.0,0.0,96,0.00,CLR,,0.00,WeatherDisplay:10.37,2017-10-21 07:53:00,
2017-10-21 03:58:00,52.1,51.0,30.30,ENE,61,0.0,0.0,96,0.00,CLR,,0.00,WeatherDisplay:10.37,2017-10-21 07:58:00,
2017-10-21 04:03:00,52.0,50.9,30.30,ENE,61,0.0,0.0,96,0.00,CLR,,0.00,WeatherDisplay:10.37,2017-10-21 08:03:00,
2017-10-21 04:08:00,52.0,51.2,30.30,ENE,61,0.0,0.0,97,0.00,CLR,,0.00,WeatherDisplay:10.37,2017-10-21 08:08:00,
2017-10-21 04:13:00,52.0,51.2,30.30,ENE,61,0.0,0.0,97,0.00,CLR,,0.00,WeatherDisplay:10.37,2017-10-21 08:13:00,
2017-10-21 04:18:00,51.9,50.8,30.30,ENE,61,0.0,0.0,96,0.00,CLR,,0.00,WeatherDisplay:10.37,2017-10-21 08:18:00,
2017-10-21 04:23:00,52.0,51.2,30.30,ENE,61,0.0,0.0,97,0.00,CLR,,0.00,WeatherDisplay:10.37,2017-10-21 08:23:00,
2017-10-21 04:28:00,52.0,51.2,30.30,ENE,61,0.0,0.0,97,0.00,CLR,,0.00,WeatherDisplay:10.37,2017-10-21 08:28:00,
2017-10-21 04:33:00,52.2,51.4,30.30,ENE,61,0.0,0.0,97,0.00,CLR,,0.00,WeatherDisplay:10.37,2017-10-21 08:33:00,
2017-10-21 04:38:00,52.4,51.6,30.30,ENE,61,0.0,0.0,97,0.00,CLR,,0.00,WeatherDisplay:10.37,2017-10-21 08:38:00,
2017-10-21 04:43:00,52.5,51.7,30.30,ENE,61,0.0,0.0,97,0.00,CLR,,0.00,WeatherDisplay:10.37,2017-10-21 08:43:00,
2017-10-21 04:48:00,52.5,51.7,30.31,ENE,61,0.0,0.0,97,0.00,CLR,,0.00,WeatherDisplay:10.37,2017-10-21 08:48:00,
2017-10-21 04:53:00,52.6,51.8,30.31,ENE,61,0.0,0.0,97,0.00,CLR,,0.00,WeatherDisplay:10.37,2017-10-21 08:53:00,
2017-10-21 04:58:00,52.7,51.9,30.31,ENE,61,0.0,0.0,97,0.00,CLR,,0.00,WeatherDisplay:10.37,2017-10-21 08:58:00,
2017-10-21 05:03:00,52.5,51.7,30.31,ENE,62,0.0,0.0,97,0.00,CLR,,0.00,WeatherDisplay:10.37,2017-10-21 09:03:00,
2017-10-21 05:08:00,52.3,51.5,30.31,ENE,61,0.0,0.0,97,0.00,CLR,,0.00,WeatherDisplay:10.37,2017-10-21 09:08:00,
2017-10-21 05:13:00,52.2,51.4,30.31,ENE,61,0.0,0.0,97,0.00,CLR,,0.00,WeatherDisplay:10.37,2017-10-21 09:13:00,
2017-10-21 05:18:00,52.2,51.4,30.31,ENE,61,0.0,0.0,97,0.00,CLR,,0.00,WeatherDisplay:10.37,2017-10-21 09:18:00,
2017-10-21 05:23:00,52.3,51.5,30.31,ENE,61,0.0,0.0,97,0.00,CLR,,0.00,WeatherDisplay:10.37,2017-10-21 09:23:00,
2017-10-21 05:28:00,52.4,51.6,30.31,ENE,61,0.0,0.0,97,0.00,CLR,,0.00,WeatherDisplay:10.37,2017-10-21 09:28:00,
2017-10-21 05:33:00,52.4,51.6,30.31,ENE,61,0.0,0.0,97,0.00,CLR,,0.00,WeatherDisplay:10.37,2017-10-21 09:33:00,
2017-10-21 05:38:00,52.4,51.6,30.32,ENE,61,0.0,0.0,97,0.00,CLR,,0.00,WeatherDisplay:10.37,2017-10-21 09:38:00,
2017-10-21 05:43:00,52.5,51.7,30.32,ENE,61,0.0,0.0,97,0.00,CLR,,0.00,WeatherDisplay:10.37,2017-10-21 09:43:00,
2017-10-21 05:48:00,52.5,51.7,30.32,ENE,61,0.0,0.0,97,0.00,CLR,,0.00,WeatherDisplay:10.37,2017-10-21 09:48:00,
2017-10-21 05:53:00,52.5,51.7,30.32,ENE,61,0.0,0.0,97,0.00,CLR,,0.00,WeatherDisplay:10.37,2017-10-21 09:53:00,
2017-10-21 05:58:00,52.4,51.6,30.32,ENE,61,0.0,0.0,97,0.00,CLR,,0.00,WeatherDisplay:10.37,2017-10-21 09:58:00,
2017-10-21 06:03:00,52.4,51.6,30.32,ENE,61,0.0,0.0,97,0.00,CLR,,0.00,WeatherDisplay:10.37,2017-10-21 10:03:00,
2017-10-21 06:08:00,52.4,51.6,30.32,ENE,61,0.0,0.0,97,0.00,CLR,,0.00,WeatherDisplay:10.37,2017-10-21 10:08:00,
2017-10-21 06:13:00,52.4,51.6,30.33,ENE,61,0.0,0.0,97,0.00,CLR,,0.00,WeatherDisplay:10.37,2017-10-21 10:13:00,
2017-10-21 06:18:00,52.3,51.5,30.33,ENE,61,0.0,0.0,97,0.00,CLR,,0.00,WeatherDisplay:10.37,2017-10-21 10:18:00,
2017-10-21 06:23:00,52.3,51.5,30.33,ENE,61,0.0,0.0,97,0.00,CLR,,0.00,WeatherDisplay:10.37,2017-10-21 10:23:00,
2017-10-21 06:28:00,52.2,51.4,30.33,ENE,61,0.0,0.0,97,0.00,CLR,,0.00,WeatherDisplay:10.37,2017-10-21 10:28:00,
2017-10-21 06:33:00,52.1,51.3,30.33,ENE,61,0.0,0.0,97,0.00,CLR,,0.00,WeatherDisplay:10.37,2017-10-21 10:33:00,
2017-10-21 06:38:00,52.1,51.3,30.33,ENE,61,0.0,0.0,97,0.00,CLR,,0.00,WeatherDisplay:10.37,2017-10-21 10:38:00,
2017-10-21 06:43:00,52.0,51.2,30.33,ENE,61,0.0,0.0,97,0.00,CLR,,0.00,WeatherDisplay:10.37,2017-10-21 10:43:00,
2017-10-21 06:53:00,51.8,51.0,30.34,ENE,61,0.0,0.0,97,0.00,CLR,,0.00,WeatherDisplay:10.37,2017-10-21 10:53:00,
2017-10-21 06:58:00,51.7,50.9,30.34,ENE,61,0.0,0.0,97,0.00,CLR,,0.00,WeatherDisplay:10.37,2017-10-21 10:58:00,
2017-10-21 07:03:00,51.7,50.9,30.34,ENE,61,0.0,0.0,97,0.00,CLR,,0.00,WeatherDisplay:10.37,2017-10-21 11:03:00,
2017-10-21 07:08:00,51.7,50.9,30.34,ENE,61,0.0,0.0,97,0.00,CLR,,0.00,WeatherDisplay:10.37,2017-10-21 11:08:00,
2017-10-21 07:13:00,51.7,50.9,30.35,ENE,61,0.0,0.0,97,0.00,CLR,,0.00,WeatherDisplay:10.37,2017-10-21 11:13:00,
2017-10-21 07:18:00,51.6,50.8,30.35,ENE,61,0.0,0.0,97,0.00,CLR,,0.00,WeatherDisplay:10.37,2017-10-21 11:18:00,
2017-10-21 07:23:00,51.6,50.8,30.35,ENE,61,0.0,0.0,97,0.00,CLR,,0.00,WeatherDisplay:10.37,2017-10-21 11:23:00,
2017-10-21 07:28:00,51.6,50.8,30.35,ENE,61,0.0,0.0,97,0.00,CLR,,0.00,WeatherDisplay:10.37,2017-10-21 11:28:00,
2017-10-21 07:33:00,51.7,50.9,30.35,ENE,61,0.0,0.0,97,0.00,CLR,,0.00,WeatherDisplay:10.37,2017-10-21 11:33:00,
2017-10-21 07:38:00,51.7,50.9,30.35,ENE,61,0.0,0.0,97,0.00,CLR,,0.00,WeatherDisplay:10.37,2017-10-21 11:38:00,
2017-10-21 07:43:00,51.8,51.0,30.35,ENE,61,0.0,0.0,97,0.00,CLR,,0.00,WeatherDisplay:10.37,2017-10-21 11:43:00,
2017-10-21 07:48:00,51.8,51.0,30.36,ENE,61,0.0,0.0,97,0.00,CLR,,0.00,WeatherDisplay:10.37,2017-10-21 11:48:00,
2017-10-21 07:53:00,51.8,51.0,30.36,ENE,61,0.0,0.0,97,0.00,CLR,,0.00,WeatherDisplay:10.37,2017-10-21 11:53:00,
2017-10-21 07:58:00,52.0,51.2,30.36,ENE,61,0.0,0.0,97,0.00,CLR,,0.00,WeatherDisplay:10.37,2017-10-21 11:58:00,
2017-10-21 08:03:00,52.6,51.8,30.36,ENE,61,0.0,0.0,97,0.00,CLR,,0.00,WeatherDisplay:10.37,2017-10-21 12:03:00,
2017-10-21 08:08:00,53.3,52.8,30.37,ENE,61,0.0,0.0,98,0.00,CLR,,0.00,WeatherDisplay:10.37,2017-10-21 12:08:00,
2017-10-21 08:13:00,54.1,53.5,30.37,ENE,61,0.0,0.0,98,0.00,CLR,,0.00,WeatherDisplay:10.37,2017-10-21 12:13:00,
2017-10-21 08:18:00,55.0,54.4,30.37,ENE,61,0.0,0.0,98,0.00,CLR,,0.00,WeatherDisplay:10.37,2017-10-21 12:18:00,
2017-10-21 08:23:00,56.1,55.5,30.37,ENE,61,0.0,0.0,98,0.00,CLR,,0.00,WeatherDisplay:10.37,2017-10-21 12:23:00,
2017-10-21 08:28:00,56.8,56.2,30.37,ENE,61,0.0,0.0,98,0.00,CLR,,0.00,WeatherDisplay:10.37,2017-10-21 12:28:00,
2017-10-21 08:33:00,58.1,57.5,30.37,ENE,61,0.0,0.0,98,0.00,CLR,,0.00,WeatherDisplay:10.37,2017-10-21 12:33:00,
2017-10-21 08:38:00,59.2,58.6,30.38,ENE,61,0.0,0.0,98,0.00,CLR,,0.00,WeatherDisplay:10.37,2017-10-21 12:38:00,
2017-10-21 08:43:00,59.5,58.9,30.38,ENE,61,0.0,0.0,98,0.00,CLR,,0.00,WeatherDisplay:10.37,2017-10-21 12:43:00,
2017-10-21 08:48:00,60.4,59.8,30.38,ENE,61,0.0,0.0,98,0.00,CLR,,0.00,WeatherDisplay:10.37,2017-10-21 12:48:00,
2017-10-21 08:53:00,61.4,60.8,30.38,ENE,61,0.0,0.0,98,0.00,CLR,,0.00,WeatherDisplay:10.37,2017-10-21 12:53:00,
2017-10-21 08:58:00,62.5,61.3,30.39,ENE,61,0.0,0.0,96,0.00,CLR,,0.00,WeatherDisplay:10.37,2017-10-21 12:58:00,
2017-10-21 09:03:00,62.7,60.0,30.38,ENE,61,0.0,0.0,91,0.00,CLR,,0.00,WeatherDisplay:10.37,2017-10-21 13:03:00,
2017-10-21 09:08:00,62.6,59.0,30.38,ENE,61,0.0,0.0,88,0.00,CLR,,0.00,WeatherDisplay:10.37,2017-10-21 13:08:00,
2017-10-21 09:09:00,62.6,59.0,30.38,ENE,61,0.0,0.0,88,0.00,CLR,,0.00,WeatherDisplay:10.37,2017-10-21 13:09:00,
2017-10-21 09:14:00,62.9,59.0,30.39,ENE,61,0.0,0.0,87,0.00,CLR,,0.00,WeatherDisplay:10.37,2017-10-21 13:14:00,
2017-10-21 09:19:00,63.5,58.2,30.39,ENE,61,0.0,0.0,83,0.00,CLR,,0.00,WeatherDisplay:10.37,2017-10-21 13:19:00,
2017-10-21 09:24:00,64.2,58.6,30.39,ENE,61,0.0,0.0,82,0.00,CLR,,0.00,WeatherDisplay:10.37,2017-10-21 13:24:00,
2017-10-21 09:29:00,64.7,58.0,30.39,ENE,61,0.0,0.0,79,0.00,CLR,,0.00,WeatherDisplay:10.37,2017-10-21 13:29:00,
2017-10-21 09:34:00,64.7,57.0,30.39,East,79,2.3,2.3,76,0.00,CLR,,0.00,WeatherDisplay:10.37,2017-10-21 13:34:00,
2017-10-21 09:39:00,64.3,56.6,30.39,ESE,117,2.3,2.3,76,0.00,CLR,,0.00,WeatherDisplay:10.37,2017-10-21 13:39:00,
2017-10-21 09:44:00,64.3,56.9,30.39,ENE,61,2.3,2.3,77,0.00,CLR,,0.00,WeatherDisplay:10.37,2017-10-21 13:44:00,
2017-10-21 09:49:00,64.4,57.0,30.39,ENE,57,1.2,1.2,77,0.00,CLR,,0.00,WeatherDisplay:10.37,2017-10-21 13:49:00,
2017-10-21 09:54:00,64.9,57.9,30.39,ENE,58,0.0,0.0,78,0.00,CLR,,0.00,WeatherDisplay:10.37,2017-10-21 13:54:00,
2017-10-21 09:59:00,65.4,58.0,30.39,ENE,58,0.0,0.0,77,0.00,CLR,,0.00,WeatherDisplay:10.37,2017-10-21 13:59:00,
2017-10-21 10:04:00,65.8,57.7,30.39,SSW,210,3.5,3.5,75,0.00,CLR,,0.00,WeatherDisplay:10.37,2017-10-21 14:04:00,
2017-10-21 10:09:00,66.0,57.8,30.39,SSW,210,1.2,1.2,75,0.00,CLR,,0.00,WeatherDisplay:10.37,2017-10-21 14:09:00,
2017-10-21 10:14:00,66.5,57.6,30.39,SSW,207,1.0,1.0,73,0.00,CLR,,0.00,WeatherDisplay:10.37,2017-10-21 14:14:00,
2017-10-21 10:19:00,66.8,58.2,30.39,SSW,200,0.0,0.0,74,0.00,CLR,,0.00,WeatherDisplay:10.37,2017-10-21 14:19:00,
2017-10-21 10:24:00,67.3,58.3,30.39,SSW,200,0.0,0.0,73,0.00,CLR,,0.00,WeatherDisplay:10.37,2017-10-21 14:24:00,
2017-10-21 10:34:00,67.8,58.4,30.39,SSW,207,0.0,0.0,72,0.00,CLR,,0.00,WeatherDisplay:10.37,2017-10-21 14:34:00,
2017-10-21 10:39:00,68.4,59.0,30.39,SSW,205,0.0,0.0,72,0.00,CLR,,0.00,WeatherDisplay:10.37,2017-10-21 14:39:00,
2017-10-21 10:44:00,69.3,58.7,30.39,North,356,1.2,0.0,69,0.00,CLR,,0.00,WeatherDisplay:10.37,2017-10-21 14:44:00,
2017-10-21 10:49:00,70.3,59.6,30.39,NNE,19,0.0,0.0,69,0.00,CLR,,0.00,WeatherDisplay:10.37,2017-10-21 14:49:00,
2017-10-21 10:54:00,71.0,59.5,30.39,NNE,20,0.0,0.0,67,0.00,CLR,,0.00,WeatherDisplay:10.37,2017-10-21 14:54:00,
2017-10-21 10:59:00,71.7,60.2,30.39,NNE,22,0.0,0.0,67,0.00,CLR,,0.00,WeatherDisplay:10.37,2017-10-21 14:59:00,
2017-10-21 11:04:00,72.4,60.0,30.39,NNE,20,0.0,0.0,65,0.00,CLR,,0.00,WeatherDisplay:10.37,2017-10-21 15:04:00,
2017-10-21 11:09:00,73.0,60.5,30.39,NNE,29,0.0,0.0,65,0.00,CLR,,0.00,WeatherDisplay:10.37,2017-10-21 15:09:00,
2017-10-21 11:14:00,73.6,60.2,30.39,NNE,30,0.0,0.0,63,0.00,CLR,,0.00,WeatherDisplay:10.37,2017-10-21 15:14:00,
2017-10-21 11:19:00,74.0,59.7,30.39,NNE,16,1.2,1.2,61,0.00,CLR,,0.00,WeatherDisplay:10.37,2017-10-21 15:19:00,
2017-10-21 11:24:00,74.2,59.9,30.39,NNE,32,1.2,0.0,61,0.00,CLR,,0.00,WeatherDisplay:10.37,2017-10-21 15:24:00,
2017-10-21 11:29:00,74.5,58.8,30.39,ENE,58,2.3,2.3,58,0.00,CLR,,0.00,WeatherDisplay:10.37,2017-10-21 15:29:00,
2017-10-21 11:34:00,74.5,58.8,30.39,NNW,338,1.2,1.2,58,0.00,CLR,,0.00,WeatherDisplay:10.37,2017-10-21 15:34:00,
2017-10-21 11:39:00,74.2,58.9,30.38,NNE,15,0.0,0.0,59,0.00,CLR,,0.00,WeatherDisplay:10.37,2017-10-21 15:39:00,
2017-10-21 11:44:00,74.6,59.3,30.39,NW,308,1.2,1.2,59,0.00,CLR,,0.00,WeatherDisplay:10.37,2017-10-21 15:44:00,
2017-10-21 11:49:00,75.1,58.8,30.39,NNE,23,1.2,1.2,57,0.00,CLR,,0.00,WeatherDisplay:10.37,2017-10-21 15:49:00,
2017-10-21 11:54:00,75.6,57.8,30.39,NNE,22,1.2,1.2,54,0.00,CLR,,0.00,WeatherDisplay:10.37,2017-10-21 15:54:00,
2017-10-21 11:59:00,75.9,57.5,30.38,SW,221,1.2,1.2,53,0.00,CLR,,0.00,WeatherDisplay:10.37,2017-10-21 15:59:00,
2017-10-21 12:04:00,75.8,58.0,30.38,NNE,23,0.0,0.0,54,0.00,CLR,,0.00,WeatherDisplay:10.37,2017-10-21 16:04:00,
2017-10-21 12:09:00,76.5,58.6,30.38,North,9,1.2,1.2,54,0.00,CLR,,0.00,WeatherDisplay:10.37,2017-10-21 16:09:00,
2017-10-21 12:14:00,76.8,57.8,30.38,NNE,20,1.2,1.2,52,0.00,CLR,,0.00,WeatherDisplay:10.37,2017-10-21 16:14:00,
2017-10-21 12:19:00,77.4,58.4,30.38,North,8,1.2,1.2,52,0.00,CLR,,0.00,WeatherDisplay:10.37,2017-10-21 16:19:00,
2017-10-21 12:24:00,77.3,57.8,30.38,WNW,300,1.2,1.2,51,0.00,CLR,,0.00,WeatherDisplay:10.37,2017-10-21 16:24:00,
2017-10-21 12:29:00,77.7,58.7,30.38,NNE,20,1.2,1.2,52,0.00,CLR,,0.00,WeatherDisplay:10.37,2017-10-21 16:29:00,
2017-10-21 12:34:00,78.1,57.9,30.38,NE,49,1.2,1.2,50,0.00,CLR,,0.00,WeatherDisplay:10.37,2017-10-21 16:34:00,
2017-10-21 12:39:00,78.4,58.8,30.38,NNW,345,0.0,0.0,51,0.00,CLR,,0.00,WeatherDisplay:10.37,2017-10-21 16:39:00,
2017-10-21 12:44:00,78.6,56.7,30.37,NNE,30,2.3,2.3,47,0.00,CLR,,0.00,WeatherDisplay:10.37,2017-10-21 16:44:00,
2017-10-21 12:49:00,78.3,56.4,30.37,NNE,19,2.3,0.0,47,0.00,CLR,,0.00,WeatherDisplay:10.37,2017-10-21 16:49:00,
2017-10-21 12:54:00,77.7,56.4,30.37,ENE,63,3.5,3.5,48,0.00,CLR,,0.00,WeatherDisplay:10.37,2017-10-21 16:54:00,
2017-10-21 12:55:00,77.7,56.4,30.37,ENE,61,2.3,2.3,48,0.00,CLR,,0.00,WeatherDisplay:10.37,2017-10-21 16:55:00,
2017-10-21 13:00:00,77.6,58.0,30.37,NNE,12,1.2,1.2,51,0.00,CLR,,0.00,WeatherDisplay:10.37,2017-10-21 17:00:00,
2017-10-21 13:05:00,78.0,57.3,30.36,NE,49,1.2,1.2,49,0.00,CLR,,0.00,WeatherDisplay:10.37,2017-10-21 17:05:00,
2017-10-21 13:10:00,78.2,56.9,30.36,ENE,77,2.3,2.3,48,0.00,CLR,,0.00,WeatherDisplay:10.37,2017-10-21 17:10:00,
2017-10-21 13:15:00,78.6,56.1,30.36,North,9,1.2,1.2,46,0.00,CLR,,0.00,WeatherDisplay:10.37,2017-10-21 17:15:00,
2017-10-21 13:20:00,78.6,56.1,30.36,NW,316,3.5,3.5,46,0.00,CLR,,0.00,WeatherDisplay:10.37,2017-10-21 17:20:00,
2017-10-21 13:25:00,78.5,56.6,30.36,SSW,201,3.5,3.5,47,0.00,CLR,,0.00,WeatherDisplay:10.37,2017-10-21 17:25:00,
2017-10-21 13:30:00,77.7,55.9,30.35,NE,37,2.3,2.3,47,0.00,CLR,,0.00,WeatherDisplay:10.37,2017-10-21 17:30:00,
2017-10-21 13:35:00,78.0,57.3,30.35,WNW,297,3.5,3.5,49,0.00,CLR,,0.00,WeatherDisplay:10.37,2017-10-21 17:35:00,
2017-10-21 13:40:00,78.2,56.3,30.35,North,357,3.5,3.5,47,0.00,CLR,,0.00,WeatherDisplay:10.37,2017-10-21 17:40:00,
2017-10-21 13:45:00,78.3,57.6,30.35,NE,41,0.0,0.0,49,0.00,CLR,,0.00,WeatherDisplay:10.37,2017-10-21 17:45:00,
2017-10-21 13:55:00,79.4,57.4,30.35,NE,50,2.3,2.3,47,0.00,CLR,,0.00,WeatherDisplay:10.37,2017-10-21 17:55:00,
2017-10-21 14:00:00,79.3,56.1,30.35,NNE,12,2.3,2.3,45,0.00,,,0.00,WeatherDisplay:10.37,2017-10-21 18:00:00,
2017-10-21 14:05:00,79.2,56.6,30.35,SE,124,2.3,2.3,46,0.00,,,0.00,WeatherDisplay:10.37,2017-10-21 18:05:00,
2017-10-21 14:10:00,78.7,56.2,30.34,NNW,342,2.3,2.3,46,0.00,,,0.00,WeatherDisplay:10.37,2017-10-21 18:10:00,
2017-10-21 14:15:00,78.7,56.8,30.34,NNW,342,3.5,3.5,47,0.00,,,0.00,WeatherDisplay:10.37,2017-10-21 18:15:00,
2017-10-21 14:20:00,78.8,56.9,30.34,ENE,57,1.2,0.0,47,0.00,,,0.00,WeatherDisplay:10.37,2017-10-21 18:20:00,
2017-10-21 14:25:00,79.3,57.3,30.34,North,8,1.2,1.2,47,0.00,,,0.00,WeatherDisplay:10.37,2017-10-21 18:25:00,
2017-10-21 14:30:00,79.4,56.8,30.34,NNE,33,3.5,3.5,46,0.00,,,0.00,WeatherDisplay:10.37,2017-10-21 18:30:00,
2017-10-21 14:35:00,79.2,57.8,30.34,NNE,17,1.2,0.0,48,0.00,,,0.00,WeatherDisplay:10.37,2017-10-21 18:35:00,
2017-10-21 14:40:00,78.8,55.7,30.34,WNW,297,5.8,5.8,45,0.00,,,0.00,WeatherDisplay:10.37,2017-10-21 18:40:00,
2017-10-21 14:45:00,78.4,56.5,30.34,NE,50,1.2,1.2,47,0.00,,,0.00,WeatherDisplay:10.37,2017-10-21 18:45:00,
2017-10-21 14:50:00,79.0,56.5,30.34,NE,46,1.2,1.2,46,0.00,,,0.00,WeatherDisplay:10.37,2017-10-21 18:50:00,
2017-10-21 14:55:00,79.5,57.5,30.34,NE,54,1.2,1.2,47,0.00,,,0.00,WeatherDisplay:10.37,2017-10-21 18:55:00,
2017-10-21 15:00:00,78.9,56.4,30.34,ENE,77,1.2,1.2,46,0.00,,,0.00,WeatherDisplay:10.37,2017-10-21 19:00:00,
2017-10-21 15:05:00,79.0,55.8,30.34,NW,317,3.5,3.5,45,0.00,,,0.00,WeatherDisplay:10.37,2017-10-21 19:05:00,
2017-10-21 15:10:00,79.2,56.0,30.34,NNW,333,3.5,3.5,45,0.00,CLR,,0.00,WeatherDisplay:10.37,2017-10-21 19:10:00,
2017-10-21 15:15:00,79.3,56.1,30.34,NNE,25,2.3,2.3,45,0.00,,,0.00,WeatherDisplay:10.37,2017-10-21 19:15:00,
2017-10-21 15:18:00,79.5,56.9,30.34,North,11,1.2,1.2,46,0.00,,,0.00,WeatherDisplay:10.37,2017-10-21 19:18:00,
2017-10-21 15:23:00,79.7,57.7,30.34,NNE,14,1.2,0.0,47,0.00,,,0.00,WeatherDisplay:10.37,2017-10-21 19:23:00,
2017-10-21 15:28:00,79.8,57.2,30.34,NNE,19,0.0,0.0,46,0.00,,,0.00,WeatherDisplay:10.37,2017-10-21 19:28:00,
2017-10-21 15:33:00,79.7,58.3,30.34,NNE,25,0.0,0.0,48,0.00,,,0.00,WeatherDisplay:10.37,2017-10-21 19:33:00,
2017-10-21 15:38:00,80.1,58.0,30.34,NNE,33,1.2,0.0,47,0.00,,,0.00,WeatherDisplay:10.37,2017-10-21 19:38:00,
2017-10-21 15:43:00,80.5,57.2,30.34,NNE,30,1.2,1.2,45,0.00,,,0.00,WeatherDisplay:10.37,2017-10-21 19:43:00,
2017-10-21 15:48:00,80.3,55.1,30.34,NNE,22,2.3,2.3,42,0.00,,,0.00,WeatherDisplay:10.37,2017-10-21 19:48:00,
2017-10-21 15:53:00,80.6,57.3,30.34,NNE,19,0.0,0.7,45,0.00,,,0.00,WeatherDisplay:10.37,2017-10-21 19:53:00,
2017-10-21 15:58:00,81.0,57.0,30.34,NNE,27,0.0,0.0,44,0.00,,,0.00,WeatherDisplay:10.37,2017-10-21 19:58:00,
2017-10-21 16:03:00,81.2,57.8,30.34,NNE,26,0.0,0.0,45,0.00,,,0.00,WeatherDisplay:10.37,2017-10-21 20:03:00,
2017-10-21 16:08:00,80.7,56.8,30.34,NNE,25,3.5,3.5,44,0.00,,,0.00,WeatherDisplay:10.37,2017-10-21 20:08:00,
2017-10-21 16:13:00,80.2,56.3,30.34,NNW,335,2.3,2.3,44,0.00,,,0.00,WeatherDisplay:10.37,2017-10-21 20:13:00,
2017-10-21 16:18:00,79.2,56.6,30.33,NNE,26,3.5,3.5,46,0.00,,,0.00,WeatherDisplay:10.37,2017-10-21 20:18:00,
2017-10-21 16:23:00,78.8,56.9,30.33,North,357,1.2,1.2,47,0.00,,,0.00,WeatherDisplay:10.37,2017-10-21 20:23:00,
2017-10-21 16:28:00,78.7,58.5,30.34,NE,34,0.0,0.0,50,0.00,,,0.00,WeatherDisplay:10.37,2017-10-21 20:28:00,
2017-10-21 16:33:00,78.9,58.7,30.34,NE,36,0.0,0.0,50,0.00,,,0.00,WeatherDisplay:10.37,2017-10-21 20:33:00,
2017-10-21 16:38:00,78.8,56.9,30.34,West,281,3.5,3.5,47,0.00,,,0.00,WeatherDisplay:10.37,2017-10-21 20:38:00,
2017-10-21 16:43:00,78.3,59.2,30.34,NNE,30,0.0,0.0,52,0.00,,,0.00,WeatherDisplay:10.37,2017-10-21 20:43:00,
2017-10-21 16:48:00,77.9,57.8,30.34,NNE,33,1.2,1.2,50,0.00,,,0.00,WeatherDisplay:10.37,2017-10-21 20:48:00,
2017-10-21 16:53:00,77.5,59.0,30.34,NNE,12,0.0,0.0,53,0.00,,,0.00,WeatherDisplay:10.37,2017-10-21 20:53:00,
2017-10-21 16:58:00,77.3,59.4,30.34,NNE,13,0.0,0.0,54,0.00,,,0.00,WeatherDisplay:10.37,2017-10-21 20:58:00,
2017-10-21 17:03:00,77.1,60.2,30.34,NNE,14,0.0,0.0,56,0.00,,,0.00,WeatherDisplay:10.37,2017-10-21 21:03:00,
2017-10-21 17:08:00,76.8,59.4,30.34,NNE,13,0.0,0.0,55,0.00,,,0.00,WeatherDisplay:10.37,2017-10-21 21:08:00,
2017-10-21 17:13:00,76.5,59.6,30.35,NNE,13,0.0,0.0,56,0.00,,,0.00,WeatherDisplay:10.37,2017-10-21 21:13:00,
2017-10-21 17:14:00,76.4,59.5,30.34,NNE,13,0.0,0.0,56,0.00,,,0.00,WeatherDisplay:10.37,2017-10-21 21:14:00,
2017-10-21 17:19:00,75.9,59.6,30.34,NNE,13,0.0,0.0,57,0.00,,,0.00,WeatherDisplay:10.37,2017-10-21 21:19:00,
2017-10-21 17:21:00,75.7,59.4,30.34,NNE,13,0.0,0.0,57,0.00,,,0.00,WeatherDisplay:10.37,2017-10-21 21:21:00,
2017-10-21 17:26:00,75.1,59.3,30.35,NNE,14,0.0,0.0,58,0.00,,,0.00,WeatherDisplay:10.37,2017-10-21 21:26:00,
2017-10-21 17:31:00,74.6,59.8,30.35,NNE,13,0.0,0.0,60,0.00,,,0.00,WeatherDisplay:10.37,2017-10-21 21:31:00,
2017-10-21 17:36:00,74.0,60.2,30.35,NNE,13,0.0,0.0,62,0.00,,,0.00,WeatherDisplay:10.37,2017-10-21 21:36:00,
2017-10-21 17:41:00,73.3,59.9,30.35,NNE,13,0.0,0.0,63,0.00,,,0.00,WeatherDisplay:10.37,2017-10-21 21:41:00,
2017-10-21 17:46:00,72.6,60.2,30.35,NNE,13,0.0,0.0,65,0.00,,,0.00,WeatherDisplay:10.37,2017-10-21 21:46:00,
2017-10-21 17:51:00,72.1,61.0,30.35,NNE,13,0.0,0.0,68,0.00,,,0.00,WeatherDisplay:10.37,2017-10-21 21:51:00,
2017-10-21 17:56:00,71.5,60.8,30.35,NNE,14,0.0,0.0,69,0.00,,,0.00,WeatherDisplay:10.37,2017-10-21 21:56:00,
2017-10-21 18:01:00,70.9,61.4,30.35,NNE,14,0.0,0.0,72,0.00,,,0.00,WeatherDisplay:10.37,2017-10-21 22:01:00,
2017-10-21 18:06:00,70.3,61.2,30.35,NNE,13,0.0,0.0,73,0.00,,,0.00,WeatherDisplay:10.37,2017-10-21 22:06:00,
2017-10-21 18:11:00,69.7,61.4,30.35,NNE,14,0.0,0.0,75,0.00,,,0.00,WeatherDisplay:10.37,2017-10-21 22:11:00,
2017-10-21 18:16:00,69.1,61.2,30.35,NNE,13,0.0,0.0,76,0.00,,,0.00,WeatherDisplay:10.37,2017-10-21 22:16:00,
2017-10-21 18:21:00,68.5,61.0,30.36,NNE,13,0.0,0.0,77,0.00,,,0.00,WeatherDisplay:10.37,2017-10-21 22:21:00,
2017-10-21 18:26:00,68.0,61.2,30.36,NNE,13,0.0,0.0,79,0.00,,,0.00,WeatherDisplay:10.37,2017-10-21 22:26:00,
2017-10-21 18:31:00,67.4,61.0,30.36,NNE,14,0.0,0.0,80,0.00,,,0.00,WeatherDisplay:10.37,2017-10-21 22:31:00,
2017-10-21 18:36:00,66.9,60.9,30.36,NNE,13,0.0,0.0,81,0.00,,,0.00,WeatherDisplay:10.37,2017-10-21 22:36:00,
2017-10-21 18:41:00,66.4,60.4,30.36,NNE,13,0.0,0.0,81,0.00,,,0.00,WeatherDisplay:10.37,2017-10-21 22:41:00,
2017-10-21 18:46:00,66.0,60.3,30.36,NNE,13,0.0,0.0,82,0.00,,,0.00,WeatherDisplay:10.37,2017-10-21 22:46:00,
2017-10-21 18:51:00,65.5,60.2,30.37,NNE,13,0.0,0.0,83,0.00,,,0.00,WeatherDisplay:10.37,2017-10-21 22:51:00,
2017-10-21 18:56:00,65.1,59.8,30.37,NNE,13,0.0,0.0,83,0.00,,,0.00,WeatherDisplay:10.37,2017-10-21 22:56:00,
2017-10-21 19:01:00,64.8,59.9,30.37,NNE,13,0.0,0.0,84,0.00,,,0.00,WeatherDisplay:10.37,2017-10-21 23:01:00,
2017-10-21 19:06:00,64.4,59.5,30.37,NNE,13,0.0,0.0,84,0.00,,,0.00,WeatherDisplay:10.37,2017-10-21 23:06:00,
2017-10-21 19:11:00,64.0,59.4,30.37,NNE,14,0.0,0.0,85,0.00,,,0.00,WeatherDisplay:10.37,2017-10-21 23:11:00,
2017-10-21 19:16:00,63.7,59.1,30.37,NNE,13,0.0,0.0,85,0.00,,,0.00,WeatherDisplay:10.37,2017-10-21 23:16:00,
2017-10-21 19:21:00,63.5,59.2,30.37,NNE,14,0.0,0.0,86,0.00,,,0.00,WeatherDisplay:10.37,2017-10-21 23:21:00,
2017-10-21 19:26:00,63.3,59.4,30.37,NNE,13,0.0,0.0,87,0.00,,,0.00,WeatherDisplay:10.37,2017-10-21 23:26:00,
2017-10-21 19:31:00,63.1,59.2,30.37,NNE,14,0.0,0.0,87,0.00,,,0.00,WeatherDisplay:10.37,2017-10-21 23:31:00,
2017-10-21 19:36:00,62.9,59.0,30.37,NNE,13,0.0,0.0,87,0.00,,,0.00,WeatherDisplay:10.37,2017-10-21 23:36:00,
2017-10-21 19:41:00,62.7,58.8,30.38,NNE,14,0.0,0.0,87,0.00,,,0.00,WeatherDisplay:10.37,2017-10-21 23:41:00,
2017-10-21 19:46:00,62.5,58.6,30.37,NNE,13,0.0,0.0,87,0.00,,,0.00,WeatherDisplay:10.37,2017-10-21 23:46:00,
2017-10-21 19:51:00,62.3,58.7,30.38,NNE,13,0.0,0.0,88,0.00,,,0.00,WeatherDisplay:10.37,2017-10-21 23:51:00,
2017-10-21 19:56:00,62.1,58.5,30.38,NNE,13,0.0,0.0,88,0.00,,,0.00,WeatherDisplay:10.37,2017-10-21 23:56:00,
2017-10-21 20:01:00,61.9,58.3,30.38,NNE,13,0.0,0.0,88,0.00,,,0.00,WeatherDisplay:10.37,2017-10-22 00:01:00,
2017-10-21 20:06:00,61.8,58.2,30.38,NNE,13,0.0,0.0,88,0.00,,,0.00,WeatherDisplay:10.37,2017-10-22 00:06:00,
2017-10-21 20:11:00,61.7,58.1,30.38,NNE,13,0.0,0.0,88,0.00,,,0.00,WeatherDisplay:10.37,2017-10-22 00:11:00,
2017-10-21 20:16:00,61.6,58.0,30.38,NNE,13,0.0,0.0,88,0.00,,,0.00,WeatherDisplay:10.37,2017-10-22 00:16:00,
2017-10-21 20:21:00,61.4,57.8,30.38,NNE,13,0.0,0.0,88,0.00,,,0.00,WeatherDisplay:10.37,2017-10-22 00:21:00,
2017-10-21 20:26:00,61.3,57.7,30.38,NNE,13,0.0,0.0,88,0.00,,,0.00,WeatherDisplay:10.37,2017-10-22 00:26:00,
2017-10-21 20:31:00,61.1,57.5,30.38,NNE,13,0.0,0.0,88,0.00,,,0.00,WeatherDisplay:10.37,2017-10-22 00:31:00,
2017-10-21 20:36:00,61.0,57.4,30.38,NNE,13,0.0,0.0,88,0.00,,,0.00,WeatherDisplay:10.37,2017-10-22 00:36:00,
2017-10-21 20:38:00,60.9,57.3,30.38,NNE,14,0.0,0.0,88,0.00,,,0.00,WeatherDisplay:10.37,2017-10-22 00:38:00,
2017-10-21 20:43:00,60.8,57.2,30.38,NNE,13,0.0,0.0,88,0.00,,,0.00,WeatherDisplay:10.37,2017-10-22 00:43:00,
2017-10-21 20:48:00,60.6,57.0,30.38,NNE,14,0.0,0.0,88,0.00,,,0.00,WeatherDisplay:10.37,2017-10-22 00:48:00,
2017-10-21 20:53:00,60.4,57.1,30.38,NNE,13,0.0,0.0,89,0.00,,,0.00,WeatherDisplay:10.37,2017-10-22 00:53:00,
2017-10-21 20:58:00,60.2,56.9,30.38,NNE,13,0.0,0.0,89,0.00,,,0.00,WeatherDisplay:10.37,2017-10-22 00:58:00,
2017-10-21 21:03:00,60.0,56.7,30.38,NNE,13,0.0,0.0,89,0.00,,,0.00,WeatherDisplay:10.37,2017-10-22 01:03:00,
2017-10-21 21:08:00,59.8,56.6,30.38,NNE,14,0.0,0.0,89,0.00,,,0.00,WeatherDisplay:10.37,2017-10-22 01:08:00,
2017-10-21 21:13:00,59.6,56.7,30.38,NNE,13,0.0,0.0,90,0.00,,,0.00,WeatherDisplay:10.37,2017-10-22 01:13:00,
2017-10-21 21:18:00,59.4,56.5,30.38,NNE,13,0.0,0.0,90,0.00,,,0.00,WeatherDisplay:10.37,2017-10-22 01:18:00,
2017-10-21 21:23:00,59.3,56.4,30.38,NNE,13,0.0,0.0,90,0.00,,,0.00,WeatherDisplay:10.37,2017-10-22 01:23:00,
2017-10-21 21:28:00,59.2,56.6,30.38,NNE,14,0.0,0.0,91,0.00,,,0.00,WeatherDisplay:10.37,2017-10-22 01:28:00,
2017-10-21 21:33:00,59.1,56.2,30.38,NNE,13,0.0,0.0,90,0.00,,,0.00,WeatherDisplay:10.37,2017-10-22 01:33:00,
2017-10-21 21:38:00,59.0,56.1,30.38,NNE,13,0.0,0.0,90,0.00,,,0.00,WeatherDisplay:10.37,2017-10-22 01:38:00,
2017-10-21 21:43:00,58.9,56.0,30.38,NNE,13,0.0,0.0,90,0.00,,,0.00,WeatherDisplay:10.37,2017-10-22 01:43:00,
2017-10-21 21:48:00,58.9,56.3,30.38,NNE,13,0.0,0.0,91,0.00,,,0.00,WeatherDisplay:10.37,2017-10-22 01:48:00,
2017-10-21 21:53:00,58.8,55.9,30.38,NNE,13,0.0,0.0,90,0.00,,,0.00,WeatherDisplay:10.37,2017-10-22 01:53:00,
2017-10-21 21:58:00,58.6,56.0,30.38,NNE,13,0.0,0.0,91,0.00,,,0.00,WeatherDisplay:10.37,2017-10-22 01:58:00,